createdAt,value
2023-01-26T00:28:30.344Z,6.33
2023-01-26T00:31:07.143Z,5.90
2023-01-26T00:33:35.776Z,7.13
2023-01-26T00:36:06.053Z,6.80
2023-01-26T00:38:35.289Z,5.97
2023-01-26T00:41:04.073Z,7.07
2023-01-26T00:43:34.192Z,6.43
2023-01-26T00:46:03.392Z,6.30
2023-01-26T00:48:32.537Z,6.17
2023-01-26T00:51:01.546Z,5.67
2023-01-26T00:53:33.758Z,6.07
2023-01-26T00:56:04.202Z,6.33
2023-01-26T01:01:37.963Z,6.30
2023-01-26T01:04:06.765Z,6.03
2023-01-26T01:06:35.643Z,6.70
2023-01-26T01:09:04.523Z,6.00
2023-01-26T01:11:35.211Z,5.80
2023-01-26T01:14:07.343Z,5.23
2023-01-26T01:16:40.676Z,5.77
2023-01-26T01:19:11.664Z,5.33
2023-01-26T01:21:40.660Z,5.70
2023-01-26T01:24:09.700Z,5.50
2023-01-26T01:26:38.923Z,5.60
2023-01-26T01:29:08.140Z,5.67
2023-01-26T01:31:36.906Z,5.27
2023-01-26T01:34:05.967Z,5.20
2023-01-26T01:36:34.708Z,5.57
2023-01-26T01:39:03.543Z,5.60
2023-01-26T01:41:32.153Z,5.07
2023-01-26T01:44:20.043Z,5.07
2023-01-26T01:46:57.864Z,4.80
2023-01-26T01:49:47.639Z,4.97
2023-01-26T01:52:27.962Z,5.13
2023-01-26T01:55:02.335Z,4.20
2023-01-26T01:57:38.523Z,5.10
2023-01-26T02:00:12.389Z,4.17
2023-01-26T02:02:42.479Z,4.93
2023-01-26T02:05:17.031Z,4.47
2023-01-26T02:07:46.493Z,4.63
2023-01-26T02:10:24.238Z,4.27
2023-01-26T02:13:02.242Z,4.70
2023-01-26T02:15:32.141Z,4.83
2023-01-26T02:18:03.761Z,5.00
2023-01-26T02:20:53.750Z,4.97
2023-01-26T02:23:34.139Z,4.57
2023-01-26T02:26:12.519Z,4.70
2023-01-26T02:28:42.411Z,4.97
2023-01-26T02:31:12.335Z,5.30
2023-01-26T02:33:48.587Z,4.93
2023-01-26T02:36:29.029Z,5.23
2023-01-26T02:39:17.176Z,4.70
2023-01-26T03:50:23.293Z,3.90
2023-01-26T03:55:24.365Z,4.43
2023-01-26T04:21:08.873Z,4.93
2023-01-26T04:23:54.722Z,3.83
2023-01-26T05:28:33.831Z,4.37
2023-01-26T06:07:00.724Z,5.47
2023-01-26T07:22:19.954Z,6.57
2023-01-26T07:24:50.285Z,6.63
2023-01-26T07:27:20.750Z,5.97
2023-01-26T07:29:50.118Z,6.97
2023-01-26T07:32:23.577Z,7.50
2023-01-26T07:34:58.643Z,7.23
2023-01-26T07:37:33.639Z,7.10
2023-01-26T07:40:04.262Z,7.40
2023-01-26T07:42:33.226Z,7.53
2023-01-26T07:45:02.053Z,7.70
2023-01-26T07:47:30.844Z,7.20
2023-01-26T07:49:59.543Z,7.30
2023-01-26T07:55:46.922Z,7.30
2023-01-26T07:58:21.850Z,6.90
2023-01-26T08:00:50.465Z,5.47
2023-01-26T08:03:19.492Z,6.07
2023-01-26T08:05:58.289Z,5.90
2023-01-26T08:08:36.209Z,5.83
2023-01-26T08:13:53.939Z,6.13
2023-01-26T08:20:25.366Z,5.63
2023-01-26T08:30:03.550Z,6.30
2023-01-26T08:32:34.443Z,6.27
2023-01-26T08:35:38.959Z,6.60
2023-01-26T08:44:39.916Z,4.70
2023-01-26T08:47:07.833Z,5.10
2023-01-26T08:49:37.679Z,5.07
2023-01-26T08:52:09.319Z,7.73
2023-01-26T08:54:38.317Z,9.23
2023-01-26T08:57:10.123Z,7.93
2023-01-26T08:59:46.456Z,7.27
2023-01-26T10:45:16.414Z,2.80
2023-01-26T10:47:46.912Z,2.57
2023-01-26T10:50:20.175Z,2.80
2023-01-26T10:56:14.300Z,2.60
2023-01-26T11:13:45.346Z,5.07
2023-01-26T11:16:28.610Z,4.43
2023-01-26T11:19:07.058Z,3.10
2023-01-26T11:22:10.546Z,3.93
2023-01-26T11:24:54.398Z,2.23
2023-01-26T11:27:34.866Z,2.60
2023-01-26T11:30:16.636Z,3.13
2023-01-26T11:36:44.545Z,3.13
2023-01-26T11:39:37.396Z,3.57
2023-01-26T11:42:26.845Z,3.03
2023-01-26T11:45:51.760Z,3.40
2023-01-26T11:48:32.824Z,3.03
2023-01-26T12:22:57.456Z,4.50
2023-01-26T12:40:09.551Z,3.73
2023-01-26T12:55:42.826Z,3.40
2023-01-26T12:58:17.477Z,4.20
2023-01-26T13:01:14.344Z,3.97
2023-01-26T13:03:58.387Z,4.27
2023-01-26T13:06:28.737Z,4.40
2023-01-26T13:09:04.676Z,4.27
2023-01-26T13:11:56.501Z,4.43
2023-01-26T13:14:33.858Z,4.60
2023-01-26T13:17:22.450Z,5.67
2023-01-26T13:19:58.008Z,5.70
2023-01-26T13:25:34.242Z,6.27
2023-01-26T13:28:50.232Z,6.70
2023-01-26T13:31:51.484Z,6.10
2023-01-26T13:34:42.806Z,7.17
2023-01-26T13:40:52.812Z,7.17
2023-01-26T13:44:03.713Z,6.60
2023-01-26T13:50:52.241Z,8.70
2023-01-26T13:53:49.131Z,8.50
2023-01-26T13:59:34.748Z,8.47
2023-01-26T14:02:03.631Z,11.63
2023-01-26T14:04:35.399Z,28.03
2023-01-26T14:07:10.329Z,6.93
2023-01-26T14:09:56.162Z,6.43
2023-01-26T14:12:30.419Z,7.03
2023-01-26T14:15:02.448Z,36.53
2023-01-26T14:17:39.053Z,14.33
2023-01-26T14:20:27.313Z,6.07
2023-01-26T14:23:12.155Z,6.13
2023-01-26T14:26:03.519Z,7.87
2023-01-26T14:28:26.263Z,7.20
2023-01-26T14:30:58.155Z,10.17
2023-01-26T14:33:28.348Z,14.50
2023-01-26T14:36:06.397Z,6.07
2023-01-26T14:38:49.094Z,5.90
2023-01-26T14:44:37.731Z,5.67
2023-01-26T14:47:12.386Z,5.17
2023-01-26T14:49:59.316Z,31.50
2023-01-26T14:52:39.577Z,7.43
2023-01-26T14:55:20.175Z,7.33
2023-01-26T14:57:49.000Z,7.70
2023-01-26T15:00:31.257Z,6.50
2023-01-26T15:09:56.951Z,10.80
2023-01-26T15:12:27.316Z,7.93
2023-01-26T15:15:01.183Z,8.47
2023-01-26T15:17:41.900Z,8.70
2023-01-26T15:20:30.303Z,6.20
2023-01-26T15:22:59.155Z,6.80
2023-01-26T15:25:33.280Z,6.57
2023-01-26T15:28:03.048Z,5.63
2023-01-26T15:30:34.990Z,5.67
2023-01-26T15:33:04.620Z,5.47
2023-01-26T15:35:36.102Z,6.10
2023-01-26T15:38:14.493Z,5.70
2023-01-26T15:40:45.952Z,6.63
2023-01-26T15:43:30.160Z,6.83
2023-01-26T15:46:13.718Z,6.53
2023-01-26T15:48:40.140Z,8.17
2023-01-26T15:51:16.048Z,9.10
2023-01-26T15:53:51.134Z,8.13
2023-01-26T15:56:19.909Z,7.07
2023-01-26T15:58:48.665Z,7.00
2023-01-26T16:01:21.707Z,7.07
2023-01-26T16:03:52.658Z,7.00
2023-01-26T16:06:29.643Z,7.73
2023-01-26T16:08:59.096Z,7.90
2023-01-26T16:11:33.352Z,8.33
2023-01-26T16:14:30.627Z,7.07
2023-01-26T16:16:59.675Z,6.20
2023-01-26T16:19:35.723Z,7.10
2023-01-26T16:22:03.950Z,6.73
2023-01-26T16:24:33.014Z,6.90
2023-01-26T16:27:43.339Z,8.07
2023-01-26T16:30:12.889Z,9.27
2023-01-26T16:32:42.822Z,9.00
2023-01-26T16:35:17.038Z,8.97
2023-01-26T16:44:37.122Z,8.50
2023-01-26T19:11:21.090Z,22.43
2023-01-26T19:13:50.433Z,19.63
2023-01-26T19:16:20.755Z,18.97
2023-01-26T19:18:50.129Z,18.43
2023-01-26T19:21:21.895Z,16.97
2023-01-26T19:23:54.857Z,15.30
2023-01-26T19:26:30.086Z,15.67
2023-01-26T19:33:16.698Z,15.97
2023-01-26T19:35:45.646Z,14.53
2023-01-26T19:38:19.143Z,14.47
2023-01-26T19:40:52.235Z,16.93
2023-01-26T19:43:28.278Z,16.57
2023-01-26T19:45:59.121Z,16.73
2023-01-26T19:48:31.327Z,15.33
2023-01-26T19:51:07.254Z,15.93
2023-01-26T19:53:39.067Z,15.83
2023-01-26T19:56:25.277Z,14.63
2023-01-26T19:59:20.173Z,15.23
2023-01-26T20:01:50.872Z,19.63
2023-01-26T20:04:21.302Z,17.13
2023-01-26T20:06:50.894Z,17.67
2023-01-26T20:09:19.622Z,15.37
2023-01-26T20:11:53.836Z,15.07
2023-01-26T20:19:14.743Z,16.43
2023-01-26T20:22:13.617Z,16.90
2023-01-26T20:24:46.069Z,16.47
2023-01-26T20:30:18.181Z,15.30
2023-01-26T20:32:48.474Z,18.67
2023-01-26T20:35:17.078Z,15.40
2023-01-26T20:37:45.762Z,14.23
2023-01-26T20:40:15.055Z,12.80
2023-01-26T20:42:48.660Z,12.83
2023-01-26T20:45:17.618Z,12.57
2023-01-26T20:47:47.724Z,25.00
2023-01-26T20:50:19.482Z,10.53
2023-01-26T20:52:48.215Z,10.60
2023-01-26T20:55:16.904Z,9.80
2023-01-26T21:14:30.652Z,6.90
2023-01-26T21:20:30.585Z,7.73
2023-01-26T21:23:05.530Z,7.73
2023-01-26T21:25:41.879Z,12.17
2023-01-26T21:28:14.957Z,9.67
2023-01-26T21:30:47.483Z,9.13
2023-01-26T21:33:38.869Z,7.83
2023-01-26T21:35:51.787Z,7.27
2023-01-26T21:45:33.734Z,7.57
2023-01-26T22:05:23.795Z,10.10
2023-01-26T22:08:03.249Z,10.63
2023-01-26T22:10:33.806Z,11.63
2023-01-26T22:13:02.620Z,11.43
2023-01-26T22:15:35.394Z,10.57
2023-01-26T22:18:04.229Z,9.60
2023-01-26T22:20:32.997Z,9.93
2023-01-26T22:23:05.274Z,8.90
2023-01-26T22:25:37.160Z,7.63
2023-01-26T22:30:51.501Z,10.93
2023-01-26T22:33:20.408Z,7.30
2023-01-26T22:35:49.193Z,8.10
2023-01-26T22:38:19.712Z,6.83
2023-01-26T22:41:34.589Z,6.97
2023-01-26T22:43:43.821Z,7.20
2023-01-26T22:46:12.896Z,6.23
2023-01-26T22:48:41.881Z,7.27
2023-01-26T22:51:26.837Z,7.07
2023-01-26T22:53:59.308Z,7.23
2023-01-26T22:56:28.569Z,7.43
2023-01-26T22:59:01.004Z,8.00
2023-01-26T23:01:32.477Z,8.03
2023-01-26T23:04:05.611Z,8.23
2023-01-26T23:06:34.702Z,7.43
2023-01-26T23:09:07.262Z,8.27
2023-01-26T23:11:36.211Z,8.17
2023-01-26T23:14:22.785Z,7.90
2023-01-26T23:17:20.131Z,8.57
2023-01-26T23:19:56.993Z,9.30
2023-01-26T23:22:53.938Z,7.67
2023-01-26T23:25:45.661Z,9.17
2023-01-26T23:28:14.545Z,9.30
2023-01-26T23:30:43.307Z,7.97
2023-01-26T23:33:15.282Z,8.57
2023-01-26T23:35:44.392Z,8.93
2023-01-26T23:38:13.698Z,9.20
2023-01-26T23:40:43.876Z,8.30
2023-01-26T23:43:17.084Z,8.73
2023-01-26T23:45:47.205Z,8.47
2023-01-26T23:48:16.494Z,7.23
2023-01-26T23:50:45.178Z,7.03
2023-01-26T23:53:14.293Z,7.60
2023-01-26T23:55:44.503Z,7.27
2023-01-26T23:58:14.730Z,6.30
